createdAt,value
2022-10-14T00:00:33.050Z,14.00
2022-10-14T00:01:56.561Z,13.68
2022-10-14T00:03:18.978Z,14.50
2022-10-14T00:04:42.359Z,14.48
2022-10-14T00:06:06.422Z,13.75
2022-10-14T00:07:29.809Z,13.25
2022-10-14T00:08:52.427Z,13.57
2022-10-14T00:10:15.843Z,12.82
2022-10-14T00:11:38.598Z,13.93
2022-10-14T00:13:01.954Z,13.63
2022-10-14T00:14:24.353Z,14.68
2022-10-14T00:15:49.127Z,13.50
2022-10-14T00:17:12.488Z,15.10
2022-10-14T00:18:34.850Z,14.75
2022-10-14T00:19:58.254Z,14.52
2022-10-14T00:21:20.819Z,14.27
2022-10-14T00:22:44.194Z,13.23
2022-10-14T00:24:07.823Z,14.90
2022-10-14T00:25:31.230Z,13.85
2022-10-14T00:26:54.645Z,13.07
2022-10-14T00:28:17.161Z,14.20
2022-10-14T00:29:40.565Z,12.88
2022-10-14T00:31:05.509Z,13.55
2022-10-14T00:32:28.895Z,13.85
2022-10-14T00:33:51.725Z,13.65
2022-10-14T00:35:15.285Z,13.55
2022-10-14T00:36:38.603Z,14.27
2022-10-14T00:38:02.052Z,13.60
2022-10-14T00:39:25.391Z,13.30
2022-10-14T00:40:47.742Z,13.80
2022-10-14T00:42:14.376Z,13.15
2022-10-14T00:43:53.469Z,14.27
2022-10-14T00:45:20.914Z,13.35
2022-10-14T00:46:47.287Z,13.82
2022-10-14T00:48:10.058Z,13.82
2022-10-14T00:49:38.113Z,12.55
2022-10-14T00:51:01.562Z,12.18
2022-10-14T00:52:24.471Z,13.38
2022-10-14T00:53:48.355Z,13.20
2022-10-14T00:55:16.504Z,13.80
2022-10-14T00:56:38.883Z,12.95
2022-10-14T00:58:02.433Z,14.57
2022-10-14T00:59:24.844Z,13.07
2022-10-14T01:00:48.246Z,13.52
2022-10-14T01:02:12.025Z,13.63
2022-10-14T01:03:36.097Z,13.77
2022-10-14T01:04:58.891Z,13.30
2022-10-14T01:06:31.786Z,12.57
2022-10-14T01:08:06.638Z,11.77
2022-10-14T01:09:31.655Z,12.30
2022-10-14T01:11:01.786Z,11.55
2022-10-14T01:12:29.970Z,12.82
2022-10-14T01:13:57.946Z,12.60
2022-10-14T01:15:28.069Z,13.48
2022-10-14T01:16:58.126Z,12.90
2022-10-14T01:18:31.684Z,13.10
2022-10-14T01:20:15.300Z,13.07
2022-10-14T01:21:40.232Z,13.43
2022-10-14T01:23:18.537Z,12.55
2022-10-14T01:24:49.262Z,12.88
2022-10-14T01:26:27.083Z,13.07
2022-10-14T01:28:16.397Z,11.32
2022-10-14T01:30:01.656Z,10.98
2022-10-14T01:31:27.945Z,11.95
2022-10-14T01:33:04.172Z,12.93
2022-10-14T01:34:31.060Z,11.98
2022-10-14T01:36:01.881Z,12.82
2022-10-14T01:37:28.195Z,11.35
2022-10-14T01:38:54.455Z,13.10
2022-10-14T01:40:23.517Z,12.55
2022-10-14T01:41:50.665Z,12.10
2022-10-14T01:43:13.530Z,12.60
2022-10-14T01:44:42.287Z,12.70
2022-10-14T01:46:08.769Z,12.82
2022-10-14T01:47:32.660Z,11.95
2022-10-14T01:48:59.099Z,11.73
2022-10-14T01:50:24.116Z,12.23
2022-10-14T01:51:50.076Z,12.68
2022-10-14T01:53:16.844Z,13.00
2022-10-14T01:54:42.951Z,11.95
2022-10-14T01:56:06.840Z,13.05
2022-10-14T01:57:32.992Z,11.93
2022-10-14T01:58:57.060Z,11.90
2022-10-14T02:00:20.649Z,12.68
2022-10-14T02:01:45.461Z,12.23
2022-10-14T02:03:08.848Z,14.05
2022-10-14T02:04:31.275Z,12.45
2022-10-14T02:05:58.668Z,13.30
2022-10-14T02:07:27.150Z,12.20
2022-10-14T02:09:01.923Z,12.93
2022-10-14T02:10:35.182Z,12.15
2022-10-14T02:12:05.769Z,11.43
2022-10-14T02:13:41.602Z,12.48
2022-10-14T02:15:13.768Z,12.32
2022-10-14T02:16:41.721Z,12.93
2022-10-14T02:18:10.952Z,12.40
2022-10-14T02:19:38.797Z,12.65
2022-10-14T02:21:07.076Z,12.07
2022-10-14T02:22:34.040Z,11.57
2022-10-14T02:24:01.352Z,11.82
2022-10-14T02:25:27.673Z,11.02
2022-10-14T02:26:52.636Z,12.02
2022-10-14T02:28:18.498Z,11.13
2022-10-14T02:29:42.989Z,11.63
2022-10-14T02:31:09.195Z,12.38
2022-10-14T02:32:33.247Z,11.10
2022-10-14T02:33:59.327Z,12.13
2022-10-14T02:35:25.663Z,12.05
2022-10-14T02:36:48.852Z,11.88
2022-10-14T02:38:12.209Z,12.32
2022-10-14T02:39:37.843Z,11.52
2022-10-14T02:41:04.355Z,12.15
2022-10-14T02:42:27.978Z,12.57
2022-10-14T02:43:51.371Z,12.07
2022-10-14T02:45:14.046Z,12.27
2022-10-14T02:46:37.821Z,11.98
2022-10-14T02:48:01.191Z,11.38
2022-10-14T02:49:24.975Z,12.75
2022-10-14T02:50:48.402Z,12.48
2022-10-14T02:52:11.797Z,11.48
2022-10-14T02:53:34.205Z,11.52
2022-10-14T02:54:57.621Z,12.10
2022-10-14T02:56:20.099Z,11.65
2022-10-14T02:57:43.479Z,11.38
2022-10-14T02:59:06.861Z,12.75
2022-10-14T03:00:30.253Z,10.88
2022-10-14T03:01:53.067Z,12.45
2022-10-14T03:03:16.448Z,11.60
2022-10-14T03:04:40.166Z,11.80
2022-10-14T03:06:03.700Z,10.68
2022-10-14T03:07:27.199Z,11.88
2022-10-14T03:08:49.668Z,10.98
2022-10-14T03:10:13.047Z,11.82
2022-10-14T03:11:35.516Z,11.85
2022-10-14T03:12:58.931Z,11.77
2022-10-14T03:14:22.301Z,11.20
2022-10-14T03:15:45.792Z,12.30
2022-10-14T03:17:09.566Z,11.68
2022-10-14T03:18:33.100Z,12.07
2022-10-14T03:19:59.233Z,12.02
2022-10-14T03:21:21.705Z,12.00
2022-10-14T03:22:45.272Z,11.70
2022-10-14T03:24:11.354Z,12.57
2022-10-14T03:25:34.911Z,11.63
2022-10-14T03:26:58.292Z,11.57
2022-10-14T03:28:21.665Z,10.90
2022-10-14T03:29:45.090Z,11.60
2022-10-14T03:31:08.994Z,11.73
2022-10-14T03:32:31.392Z,11.18
2022-10-14T03:33:55.261Z,11.68
2022-10-14T03:35:20.032Z,11.70
2022-10-14T03:36:43.556Z,11.82
2022-10-14T03:38:06.902Z,11.68
2022-10-14T03:39:30.380Z,10.90
2022-10-14T03:40:54.126Z,12.35
2022-10-14T03:42:16.515Z,12.25
2022-10-14T03:43:39.915Z,10.77
2022-10-14T03:45:02.489Z,10.90
2022-10-14T03:46:27.478Z,11.45
2022-10-14T03:47:49.835Z,10.75
2022-10-14T03:49:13.455Z,11.90
2022-10-14T03:50:38.332Z,11.80
2022-10-14T03:52:00.683Z,11.45
2022-10-14T03:53:26.105Z,11.73
2022-10-14T03:54:49.445Z,12.07
2022-10-14T03:56:12.842Z,11.68
2022-10-14T03:57:35.353Z,11.88
2022-10-14T03:58:58.693Z,12.13
2022-10-14T04:00:22.190Z,11.40
2022-10-14T04:01:45.577Z,11.43
2022-10-14T04:05:00.734Z,10.98
2022-10-14T04:06:25.820Z,11.23
2022-10-14T04:07:49.279Z,12.00
2022-10-14T04:09:11.626Z,10.98
2022-10-14T04:10:35.028Z,11.95
2022-10-14T04:11:58.523Z,11.60
2022-10-14T04:13:21.120Z,11.30
2022-10-14T04:14:44.477Z,11.40
2022-10-14T04:16:08.866Z,11.75
2022-10-14T04:17:33.013Z,12.00
2022-10-14T04:18:55.436Z,11.50
2022-10-14T04:20:19.442Z,11.02
2022-10-14T04:21:44.234Z,11.88
2022-10-14T04:23:07.739Z,11.07
2022-10-14T04:24:31.549Z,12.02
2022-10-14T04:25:54.016Z,12.07
2022-10-14T04:27:17.427Z,12.07
2022-10-14T04:28:39.940Z,11.27
2022-10-14T04:30:03.436Z,12.23
2022-10-14T04:31:26.986Z,11.82
2022-10-14T04:32:50.348Z,11.55
2022-10-14T04:34:13.871Z,11.85
2022-10-14T04:35:37.220Z,12.65
2022-10-14T04:37:01.982Z,12.07
2022-10-14T04:38:24.388Z,11.27
2022-10-14T04:39:47.783Z,12.60
2022-10-14T04:41:11.165Z,12.55
2022-10-14T04:42:33.623Z,11.80
2022-10-14T04:43:56.978Z,11.27
2022-10-14T04:45:20.386Z,12.52
2022-10-14T04:46:42.775Z,11.73
2022-10-14T04:48:09.074Z,10.90
2022-10-14T04:49:31.421Z,11.80
2022-10-14T04:50:55.288Z,12.57
2022-10-14T04:52:20.378Z,13.07
2022-10-14T04:53:43.002Z,12.70
2022-10-14T04:55:07.086Z,11.68
2022-10-14T04:56:30.407Z,12.80
2022-10-14T04:57:54.131Z,10.90
2022-10-14T04:59:17.526Z,10.43
2022-10-14T05:00:40.245Z,11.82
2022-10-14T05:02:03.663Z,11.63
2022-10-14T05:03:26.180Z,12.45
2022-10-14T05:04:51.155Z,11.23
2022-10-14T05:06:14.605Z,11.52
2022-10-14T05:07:39.852Z,12.45
2022-10-14T05:09:03.192Z,11.60
2022-10-14T05:10:26.614Z,11.52
2022-10-14T05:11:50.433Z,10.43
2022-10-14T05:13:13.828Z,11.82
2022-10-14T05:14:37.250Z,11.10
2022-10-14T05:16:00.628Z,11.73
2022-10-14T05:17:24.214Z,13.02
2022-10-14T05:18:47.623Z,11.77
2022-10-14T05:20:11.395Z,13.18
2022-10-14T05:21:34.806Z,11.40
2022-10-14T05:22:59.622Z,11.48
2022-10-14T05:24:22.025Z,11.77
2022-10-14T05:25:45.652Z,11.18
2022-10-14T05:27:08.091Z,12.85
2022-10-14T05:28:32.098Z,12.13
2022-10-14T05:29:55.594Z,11.50
2022-10-14T05:31:20.312Z,11.90
2022-10-14T05:32:43.699Z,11.75
2022-10-14T05:34:07.185Z,11.75
2022-10-14T05:35:56.992Z,11.70
2022-10-14T05:37:16.674Z,11.38
2022-10-14T05:38:41.596Z,10.93
2022-10-14T05:40:05.485Z,10.88
2022-10-14T05:41:29.118Z,11.93
2022-10-14T05:42:52.502Z,11.30
2022-10-14T05:44:14.943Z,10.85
2022-10-14T05:45:38.251Z,12.75
2022-10-14T05:47:01.608Z,12.15
2022-10-14T05:48:24.977Z,11.90
2022-10-14T05:49:48.348Z,12.07
2022-10-14T05:51:10.711Z,12.70
2022-10-14T05:52:35.112Z,12.55
2022-10-14T05:53:59.903Z,11.25
2022-10-14T05:55:23.280Z,12.07
2022-10-14T05:56:52.431Z,11.15
2022-10-14T05:58:14.847Z,10.77
2022-10-14T05:59:38.203Z,11.40
2022-10-14T06:01:02.090Z,11.73
2022-10-14T06:02:24.604Z,11.50
2022-10-14T06:03:51.721Z,11.52
2022-10-14T06:05:15.277Z,11.38
2022-10-14T06:06:38.799Z,11.23
2022-10-14T06:08:01.268Z,11.90
2022-10-14T06:09:25.963Z,11.43
2022-10-14T06:10:49.320Z,12.18
2022-10-14T06:12:13.225Z,12.38
2022-10-14T06:13:39.082Z,11.32
2022-10-14T06:15:02.403Z,12.30
2022-10-14T06:16:24.787Z,12.43
2022-10-14T06:17:48.172Z,10.82
2022-10-14T06:19:10.589Z,11.20
2022-10-14T06:20:34.058Z,9.85
2022-10-14T06:21:57.386Z,11.23
2022-10-14T06:23:20.801Z,11.20
2022-10-14T06:24:45.521Z,11.13
2022-10-14T06:26:11.044Z,12.18
2022-10-14T06:27:34.499Z,10.98
2022-10-14T06:28:57.950Z,11.63
2022-10-14T06:30:21.580Z,10.70
2022-10-14T06:31:44.098Z,10.73
2022-10-14T06:33:07.649Z,11.60
2022-10-14T06:34:31.080Z,10.95
2022-10-14T06:35:54.411Z,10.82
2022-10-14T06:37:17.774Z,9.73
2022-10-14T06:38:41.327Z,10.07
2022-10-14T06:40:07.091Z,11.20
2022-10-14T06:41:30.428Z,9.70
2022-10-14T06:42:53.588Z,10.45
2022-10-14T06:44:16.946Z,11.23
2022-10-14T06:45:40.336Z,11.32
2022-10-14T06:47:03.690Z,11.30
2022-10-14T06:48:26.101Z,11.63
2022-10-14T06:49:49.558Z,10.52
2022-10-14T06:51:12.887Z,10.50
2022-10-14T06:52:36.393Z,11.55
2022-10-14T06:53:59.842Z,10.43
2022-10-14T06:55:24.542Z,11.30
2022-10-14T06:56:47.992Z,10.82
2022-10-14T06:58:11.626Z,10.80
2022-10-14T06:59:34.964Z,9.43
2022-10-14T07:01:05.419Z,10.90
2022-10-14T07:02:28.841Z,10.93
2022-10-14T07:03:55.797Z,11.23
2022-10-14T07:05:20.179Z,10.52
2022-10-14T07:06:43.631Z,10.68
2022-10-14T07:08:09.065Z,9.75
2022-10-14T07:09:33.806Z,9.98
2022-10-14T07:11:00.377Z,10.07
2022-10-14T07:12:24.200Z,10.32
2022-10-14T07:13:46.996Z,10.48
2022-10-14T07:15:11.312Z,10.43
2022-10-14T07:16:34.677Z,9.75
2022-10-14T07:17:58.087Z,9.82
2022-10-14T07:19:21.538Z,10.43
2022-10-14T07:20:45.764Z,11.25
2022-10-14T07:22:09.162Z,10.10
2022-10-14T07:23:32.570Z,9.77
2022-10-14T07:24:55.008Z,10.73
2022-10-14T07:26:19.749Z,9.30
2022-10-14T07:27:43.842Z,12.40
2022-10-14T07:29:07.562Z,10.85
2022-10-14T07:30:31.117Z,10.73
2022-10-14T07:31:54.461Z,9.95
2022-10-14T07:33:17.797Z,10.80
2022-10-14T07:34:41.158Z,10.38
2022-10-14T07:36:05.321Z,10.63
2022-10-14T07:37:28.663Z,11.02
2022-10-14T07:38:52.176Z,10.57
2022-10-14T07:40:15.756Z,10.32
2022-10-14T07:41:40.868Z,10.23
2022-10-14T07:43:04.212Z,11.13
2022-10-14T07:44:27.680Z,10.35
2022-10-14T07:45:51.394Z,10.43
2022-10-14T07:47:14.753Z,10.75
2022-10-14T07:48:55.943Z,10.10
2022-10-14T07:50:20.587Z,10.50
2022-10-14T07:51:44.539Z,10.50
2022-10-14T07:53:08.048Z,10.68
2022-10-14T07:54:32.509Z,10.75
2022-10-14T07:55:58.871Z,9.68
2022-10-14T07:57:25.262Z,10.48
2022-10-14T07:58:49.049Z,10.30
2022-10-14T08:00:13.081Z,9.77
2022-10-14T08:01:37.037Z,10.27
2022-10-14T08:03:00.423Z,10.27
2022-10-14T08:04:24.576Z,11.02
2022-10-14T08:05:48.110Z,11.13
2022-10-14T08:07:13.591Z,10.82
2022-10-14T08:08:37.174Z,11.18
2022-10-14T08:10:01.260Z,10.18
2022-10-14T08:11:26.688Z,11.25
2022-10-14T08:12:51.156Z,9.77
2022-10-14T08:14:15.324Z,10.38
2022-10-14T08:15:40.671Z,10.80
2022-10-14T08:17:04.039Z,10.48
2022-10-14T08:18:27.687Z,9.50
2022-10-14T08:19:51.403Z,9.88
2022-10-14T08:21:15.433Z,9.88
2022-10-14T08:22:38.767Z,9.50
2022-10-14T08:24:02.189Z,10.15
2022-10-14T08:25:25.791Z,10.00
2022-10-14T08:26:53.548Z,9.63
2022-10-14T08:28:18.333Z,10.27
2022-10-14T08:29:41.708Z,10.10
2022-10-14T08:31:05.412Z,9.68
2022-10-14T08:32:28.849Z,10.30
2022-10-14T08:33:52.239Z,9.55
2022-10-14T08:35:14.782Z,9.02
2022-10-14T08:36:38.400Z,9.60
2022-10-14T08:38:02.657Z,10.52
2022-10-14T08:39:26.168Z,9.98
2022-10-14T08:40:57.785Z,9.50
2022-10-14T08:42:33.312Z,9.80
2022-10-14T08:44:07.172Z,8.70
2022-10-14T08:45:34.841Z,10.27
2022-10-14T08:46:59.857Z,9.77
2022-10-14T08:48:25.892Z,9.68
2022-10-14T08:49:59.595Z,9.38
2022-10-14T08:51:23.209Z,9.43
2022-10-14T08:52:49.514Z,8.73
2022-10-14T08:54:15.444Z,9.30
2022-10-14T08:55:40.326Z,9.95
2022-10-14T08:57:03.660Z,10.38
2022-10-14T08:58:29.137Z,10.05
2022-10-14T08:59:54.451Z,9.75
2022-10-14T09:01:23.778Z,9.02
2022-10-14T09:02:49.380Z,8.95
2022-10-14T09:04:15.532Z,9.57
2022-10-14T09:05:40.670Z,9.60
2022-10-14T09:07:04.218Z,9.85
2022-10-14T09:08:31.826Z,10.05
2022-10-14T09:09:59.783Z,10.20
2022-10-14T09:11:25.106Z,9.60
2022-10-14T09:12:48.596Z,10.80
2022-10-14T09:14:16.955Z,9.82
2022-10-14T09:15:43.367Z,10.95
2022-10-14T09:17:07.783Z,11.60
2022-10-14T09:18:35.648Z,9.60
2022-10-14T09:20:05.884Z,10.35
2022-10-14T09:21:40.309Z,10.50
2022-10-14T09:23:15.543Z,10.73
2022-10-14T09:24:39.111Z,10.00
2022-10-14T09:26:08.264Z,11.15
2022-10-14T09:27:34.038Z,10.77
2022-10-14T09:28:57.685Z,10.45
2022-10-14T09:30:21.170Z,10.38
2022-10-14T09:31:46.276Z,10.77
2022-10-14T09:33:14.767Z,10.73
2022-10-14T09:34:39.280Z,10.13
2022-10-14T09:36:02.955Z,10.63
2022-10-14T09:37:28.408Z,10.98
2022-10-14T09:38:52.968Z,11.10
2022-10-14T09:40:18.796Z,10.27
2022-10-14T09:41:42.177Z,10.20
2022-10-14T09:43:11.527Z,11.35
2022-10-14T09:44:34.914Z,10.18
2022-10-14T09:46:00.555Z,11.00
2022-10-14T09:47:24.643Z,10.52
2022-10-14T09:48:50.499Z,10.93
2022-10-14T09:50:23.081Z,11.27
2022-10-14T09:51:46.516Z,11.15
2022-10-14T09:53:17.075Z,10.93
2022-10-14T09:54:40.818Z,11.02
2022-10-14T09:56:05.922Z,10.95
2022-10-14T09:57:29.574Z,10.20
2022-10-14T09:58:56.440Z,10.07
2022-10-14T10:00:28.514Z,9.85
2022-10-14T10:01:53.241Z,10.52
2022-10-14T10:03:29.261Z,10.07
2022-10-14T10:04:54.875Z,10.55
2022-10-14T10:06:20.244Z,10.82
2022-10-14T10:07:42.580Z,11.85
2022-10-14T10:09:06.057Z,10.98
2022-10-14T10:10:31.077Z,10.82
2022-10-14T10:11:55.176Z,10.63
2022-10-14T10:13:28.839Z,10.90
2022-10-14T10:14:58.687Z,10.60
2022-10-14T10:16:25.827Z,10.73
2022-10-14T10:17:49.897Z,11.00
2022-10-14T10:19:29.053Z,12.27
2022-10-14T10:21:06.585Z,10.13
2022-10-14T10:22:34.075Z,10.05
2022-10-14T10:23:59.815Z,11.32
2022-10-14T10:25:27.102Z,11.25
2022-10-14T10:26:51.081Z,11.55
2022-10-14T10:28:20.127Z,10.02
2022-10-14T10:29:43.499Z,10.20
2022-10-14T10:31:12.602Z,9.55
2022-10-14T10:32:42.444Z,9.57
2022-10-14T10:34:21.055Z,9.90
2022-10-14T10:35:55.990Z,9.40
2022-10-14T10:37:29.977Z,9.38
2022-10-14T10:38:59.993Z,10.02
2022-10-14T10:40:32.434Z,10.25
2022-10-14T10:42:02.508Z,9.13
2022-10-14T10:43:39.060Z,10.20
2022-10-14T10:45:07.543Z,10.25
2022-10-14T10:46:45.820Z,8.90
2022-10-14T10:48:15.637Z,9.95
2022-10-14T10:49:54.783Z,9.57
2022-10-14T10:51:26.633Z,9.75
2022-10-14T10:52:56.888Z,10.00
2022-10-14T10:54:31.231Z,9.73
2022-10-14T10:56:02.424Z,9.88
2022-10-14T10:57:39.059Z,9.55
2022-10-14T11:00:52.345Z,9.68
2022-10-14T11:02:33.233Z,10.82
2022-10-14T11:04:08.084Z,9.07
2022-10-14T11:05:52.471Z,9.88
2022-10-14T11:07:40.359Z,10.25
2022-10-14T11:09:23.849Z,8.45
2022-10-14T11:11:11.226Z,9.18
2022-10-14T11:12:39.902Z,9.35
2022-10-14T11:14:12.765Z,8.75
2022-10-14T11:15:45.795Z,10.23
2022-10-14T11:17:12.951Z,9.27
2022-10-14T11:18:45.491Z,8.55
2022-10-14T11:20:14.479Z,9.85
2022-10-14T11:21:48.060Z,9.88
2022-10-14T11:23:31.582Z,10.55
2022-10-14T11:24:58.761Z,9.13
2022-10-14T11:26:46.658Z,9.35
2022-10-14T11:28:15.172Z,9.00
2022-10-14T11:29:49.389Z,8.82
2022-10-14T11:31:24.166Z,8.77
2022-10-14T11:33:01.474Z,8.52
2022-10-14T11:34:43.120Z,9.45
2022-10-14T11:36:17.349Z,9.02
2022-10-14T11:37:47.840Z,7.78
2022-10-14T11:39:22.691Z,8.85
2022-10-14T11:40:49.640Z,9.13
2022-10-14T11:42:25.462Z,10.52
2022-10-14T11:43:54.116Z,9.65
2022-10-14T11:45:40.299Z,8.63
2022-10-14T11:47:06.438Z,8.57
2022-10-14T11:48:35.535Z,7.68
2022-10-14T11:50:03.232Z,8.20
2022-10-14T11:51:35.505Z,8.45
2022-10-14T11:53:03.317Z,7.38
2022-10-14T11:54:32.232Z,8.23
2022-10-14T11:56:03.327Z,7.95
2022-10-14T11:57:31.846Z,8.10
2022-10-14T11:59:09.628Z,8.10
2022-10-14T12:00:53.684Z,7.68
2022-10-14T12:02:22.576Z,8.10
2022-10-14T12:03:52.529Z,7.88
2022-10-14T12:05:21.242Z,8.27
2022-10-14T12:06:48.622Z,7.43
2022-10-14T12:08:21.957Z,7.53
2022-10-14T12:09:51.078Z,9.13
2022-10-14T12:11:28.531Z,6.72
2022-10-14T12:12:52.758Z,6.53
2022-10-14T12:14:20.280Z,7.47
2022-10-14T12:15:48.251Z,8.48
2022-10-14T12:17:19.281Z,7.03
2022-10-14T12:18:44.166Z,7.45
2022-10-14T12:20:20.853Z,7.88
2022-10-14T12:21:50.664Z,7.38
2022-10-14T12:23:19.304Z,7.68
2022-10-14T12:24:46.640Z,6.95
2022-10-14T12:26:18.197Z,6.82
2022-10-14T12:27:41.877Z,7.43
2022-10-14T12:29:06.391Z,6.25
2022-10-14T12:30:35.825Z,6.78
2022-10-14T12:32:21.221Z,6.45
2022-10-14T12:34:24.765Z,5.95
2022-10-14T12:35:54.383Z,6.13
2022-10-14T12:37:51.829Z,6.28
2022-10-14T12:39:32.196Z,6.65
2022-10-14T12:40:57.197Z,6.43
2022-10-14T12:42:20.549Z,6.75
2022-10-14T12:43:45.116Z,6.63
2022-10-14T12:45:16.882Z,6.28
2022-10-14T12:46:45.180Z,6.20
2022-10-14T12:48:15.817Z,5.93
2022-10-14T12:49:39.400Z,6.65
2022-10-14T12:51:13.202Z,5.90
2022-10-14T12:52:37.659Z,5.53
2022-10-14T12:54:09.390Z,6.18
2022-10-14T12:55:35.758Z,5.70
2022-10-14T12:57:01.892Z,5.70
2022-10-14T12:58:27.111Z,5.28
2022-10-14T12:59:51.939Z,5.20
2022-10-14T13:01:18.811Z,5.65
2022-10-14T13:02:46.823Z,5.10
2022-10-14T13:04:19.953Z,5.88
2022-10-14T13:05:44.352Z,5.35
2022-10-14T13:07:46.864Z,6.20
2022-10-14T13:09:41.331Z,6.55
2022-10-14T13:11:12.178Z,5.32
2022-10-14T13:12:46.398Z,5.65
2022-10-14T13:14:25.354Z,5.00
2022-10-14T13:15:50.537Z,5.65
2022-10-14T13:17:29.739Z,6.00
2022-10-14T13:18:54.235Z,6.18
2022-10-14T13:20:53.300Z,6.15
2022-10-14T13:22:40.590Z,6.20
2022-10-14T13:24:07.072Z,4.82
2022-10-14T13:25:30.798Z,4.82
2022-10-14T13:27:04.927Z,5.38
2022-10-14T13:28:34.544Z,5.80
2022-10-14T13:30:04.908Z,5.03
2022-10-14T13:31:34.541Z,4.40
2022-10-14T13:32:59.986Z,5.78
2022-10-14T13:34:33.591Z,4.85
2022-10-14T13:36:05.535Z,4.70
2022-10-14T13:37:34.866Z,5.13
2022-10-14T13:39:00.588Z,4.50
2022-10-14T13:40:27.337Z,4.22
2022-10-14T13:41:51.159Z,4.97
2022-10-14T13:43:18.943Z,4.55
2022-10-14T13:44:44.386Z,4.50
2022-10-14T13:46:09.706Z,4.78
2022-10-14T13:47:33.098Z,7.78
2022-10-14T13:48:58.689Z,5.25
2022-10-14T13:50:24.650Z,4.57
2022-10-14T13:51:51.301Z,4.45
2022-10-14T13:53:17.943Z,4.40
2022-10-14T13:54:41.422Z,8.02
2022-10-14T13:56:04.982Z,5.18
2022-10-14T13:57:53.610Z,4.25
2022-10-14T13:59:43.146Z,4.28
2022-10-14T14:01:09.171Z,4.72
2022-10-14T14:02:32.639Z,4.72
2022-10-14T14:03:58.648Z,4.32
2022-10-14T14:05:21.402Z,4.82
2022-10-14T14:07:03.395Z,5.28
2022-10-14T14:08:42.209Z,4.13
2022-10-14T14:10:09.569Z,4.20
2022-10-14T14:11:35.572Z,4.65
2022-10-14T14:12:59.899Z,4.55
2022-10-14T14:14:24.868Z,4.65
2022-10-14T14:15:51.806Z,5.65
2022-10-14T14:17:19.193Z,5.22
2022-10-14T14:19:03.824Z,4.75
2022-10-14T14:20:33.949Z,4.45
2022-10-14T14:22:08.090Z,5.05
2022-10-14T14:23:32.216Z,4.55
2022-10-14T14:25:31.852Z,5.22
2022-10-14T14:26:56.034Z,3.85
2022-10-14T14:28:20.059Z,4.88
2022-10-14T14:29:45.231Z,4.50
2022-10-14T14:31:14.562Z,5.10
2022-10-14T14:32:39.351Z,4.65
2022-10-14T14:34:02.737Z,4.70
2022-10-14T14:35:26.458Z,4.78
2022-10-14T14:36:53.383Z,5.32
2022-10-14T14:38:30.429Z,4.47
2022-10-14T14:39:58.248Z,4.57
2022-10-14T14:41:23.651Z,4.43
2022-10-14T14:42:49.310Z,5.05
2022-10-14T14:44:25.179Z,4.45
2022-10-14T14:45:49.668Z,4.00
2022-10-14T14:47:12.348Z,4.63
2022-10-14T14:48:37.321Z,4.82
2022-10-14T14:50:18.244Z,4.50
2022-10-14T14:51:43.830Z,4.82
2022-10-14T14:53:12.117Z,3.78
2022-10-14T14:54:35.457Z,4.60
2022-10-14T14:56:06.824Z,5.10
2022-10-14T14:57:32.567Z,4.60
2022-10-14T14:58:58.145Z,4.55
2022-10-14T15:00:26.883Z,4.18
2022-10-14T15:01:50.593Z,4.82
2022-10-14T15:03:14.116Z,4.53
2022-10-14T15:04:38.870Z,4.55
2022-10-14T15:06:03.059Z,4.20
2022-10-14T15:07:27.703Z,4.93
2022-10-14T15:08:52.501Z,4.97
2022-10-14T15:10:22.904Z,3.70
2022-10-14T15:11:50.420Z,4.40
2022-10-14T15:13:30.181Z,4.20
2022-10-14T15:14:54.983Z,3.97
2022-10-14T15:16:35.461Z,4.22
2022-10-14T15:18:14.825Z,4.20
2022-10-14T15:19:39.617Z,3.90
2022-10-14T15:21:15.732Z,5.13
2022-10-14T15:22:40.183Z,5.03
2022-10-14T15:24:03.543Z,4.25
2022-10-14T15:25:30.501Z,4.10
2022-10-14T15:26:53.823Z,3.25
2022-10-14T15:28:31.322Z,10.05
2022-10-14T15:30:23.756Z,7.50
2022-10-14T15:31:48.385Z,4.40
2022-10-14T15:33:16.536Z,4.22
2022-10-14T15:34:41.475Z,4.03
2022-10-14T15:36:05.387Z,4.57
2022-10-14T15:37:27.805Z,4.20
2022-10-14T15:38:52.764Z,4.18
2022-10-14T15:40:18.674Z,4.22
2022-10-14T15:41:42.221Z,4.15
2022-10-14T15:43:10.958Z,4.40
2022-10-14T15:44:36.411Z,5.22
2022-10-14T15:46:18.239Z,4.45
2022-10-14T15:47:42.221Z,4.60
2022-10-14T15:49:10.966Z,4.07
2022-10-14T15:50:39.411Z,3.90
2022-10-14T15:52:02.738Z,3.75
2022-10-14T15:53:26.340Z,4.07
2022-10-14T15:54:50.822Z,4.68
2022-10-14T15:56:14.384Z,4.50
2022-10-14T15:57:38.015Z,4.35
2022-10-14T15:59:01.396Z,5.00
2022-10-14T16:00:26.060Z,4.30
2022-10-14T16:01:49.024Z,4.40
2022-10-14T16:03:12.716Z,5.00
2022-10-14T16:04:35.232Z,4.50
2022-10-14T16:07:26.003Z,3.85
2022-10-14T16:08:49.626Z,5.22
2022-10-14T16:10:16.140Z,4.07
2022-10-14T16:11:39.486Z,4.18
2022-10-14T16:13:02.856Z,4.88
2022-10-14T16:14:25.416Z,4.97
2022-10-14T16:15:50.505Z,3.90
2022-10-14T16:17:12.934Z,4.25
2022-10-14T16:18:36.273Z,4.20
2022-10-14T16:19:59.621Z,4.47
2022-10-14T16:21:24.466Z,4.63
2022-10-14T16:22:47.852Z,4.30
2022-10-14T16:24:17.476Z,8.23
2022-10-14T16:25:44.871Z,5.22
2022-10-14T16:27:08.347Z,4.97
2022-10-14T16:28:31.912Z,5.65
2022-10-14T16:29:55.367Z,4.47
2022-10-14T16:31:17.976Z,5.05
2022-10-14T16:32:41.487Z,5.05
2022-10-14T16:34:03.887Z,4.72
2022-10-14T16:35:27.245Z,5.10
2022-10-14T16:36:51.480Z,4.53
2022-10-14T16:38:14.868Z,4.85
2022-10-14T16:39:38.955Z,4.45
2022-10-14T16:41:03.905Z,4.68
2022-10-14T16:42:27.301Z,4.95
2022-10-14T16:43:50.631Z,4.53
2022-10-14T16:45:14.336Z,4.30
2022-10-14T16:46:55.460Z,6.35
2022-10-14T16:48:19.353Z,4.93
2022-10-14T16:49:43.116Z,4.50
2022-10-14T16:51:06.796Z,4.70
2022-10-14T16:52:52.121Z,4.35
2022-10-14T16:54:14.491Z,4.00
2022-10-14T16:55:39.289Z,4.65
2022-10-14T16:57:01.787Z,4.20
2022-10-14T16:58:25.807Z,4.45
2022-10-14T16:59:49.189Z,4.68
2022-10-14T17:01:12.214Z,4.32
2022-10-14T17:02:35.626Z,3.80
2022-10-14T17:03:59.753Z,4.45
2022-10-14T17:05:23.118Z,3.80
2022-10-14T17:06:45.748Z,4.65
2022-10-14T17:08:10.787Z,5.28
2022-10-14T17:09:33.536Z,4.65
2022-10-14T17:10:58.999Z,4.63
2022-10-14T17:12:22.632Z,4.60
2022-10-14T17:13:46.238Z,4.72
2022-10-14T17:15:10.399Z,4.90
2022-10-14T17:16:33.759Z,4.90
2022-10-14T17:17:57.173Z,4.70
2022-10-14T17:19:20.649Z,5.45
2022-10-14T17:20:43.858Z,4.68
2022-10-14T17:22:07.221Z,5.47
2022-10-14T17:23:32.500Z,4.93
2022-10-14T17:24:55.862Z,5.20
2022-10-14T17:26:20.481Z,5.20
2022-10-14T17:27:43.890Z,5.25
2022-10-14T17:29:07.271Z,5.28
2022-10-14T17:30:30.661Z,4.90
2022-10-14T17:31:53.990Z,5.40
2022-10-14T17:33:17.794Z,5.38
2022-10-14T17:34:41.569Z,5.25
2022-10-14T17:36:06.455Z,5.55
2022-10-14T17:37:30.915Z,5.80
2022-10-14T17:38:55.551Z,5.05
2022-10-14T17:40:19.335Z,4.72
2022-10-14T17:41:42.703Z,5.20
2022-10-14T17:43:06.155Z,4.90
2022-10-14T17:44:29.674Z,4.93
2022-10-14T17:45:53.035Z,5.18
2022-10-14T17:47:17.395Z,5.28
2022-10-14T17:48:42.275Z,5.43
2022-10-14T17:50:07.063Z,5.65
2022-10-14T17:51:31.656Z,5.55
2022-10-14T17:52:58.699Z,5.78
2022-10-14T17:54:23.468Z,4.97
2022-10-14T17:55:46.786Z,5.70
2022-10-14T17:57:10.931Z,5.35
2022-10-14T17:58:34.394Z,5.28
2022-10-14T17:59:57.740Z,5.45
2022-10-14T18:01:36.699Z,5.50
2022-10-14T18:03:05.441Z,5.15
2022-10-14T18:04:29.179Z,4.90
2022-10-14T18:05:53.052Z,5.28
2022-10-14T18:07:18.751Z,5.38
2022-10-14T18:08:42.483Z,5.07
2022-10-14T18:10:07.573Z,5.10
2022-10-14T18:11:56.151Z,4.30
2022-10-14T18:13:15.965Z,5.10
2022-10-14T18:14:40.600Z,5.20
2022-10-14T18:16:04.445Z,5.72
2022-10-14T18:17:27.820Z,5.22
2022-10-14T18:18:51.713Z,5.18
2022-10-14T18:20:15.223Z,4.72
2022-10-14T18:21:41.490Z,5.38
2022-10-14T18:23:04.831Z,4.65
2022-10-14T18:24:28.300Z,4.25
2022-10-14T18:25:53.399Z,4.90
2022-10-14T18:27:16.836Z,4.55
2022-10-14T18:28:41.595Z,5.30
2022-10-14T18:30:05.525Z,4.88
2022-10-14T18:31:30.523Z,4.63
2022-10-14T18:32:56.435Z,5.13
2022-10-14T18:34:19.795Z,4.68
2022-10-14T18:35:46.450Z,5.13
2022-10-14T18:37:13.497Z,4.85
2022-10-14T18:38:37.532Z,4.85
2022-10-14T18:40:00.864Z,5.13
2022-10-14T18:41:26.503Z,4.30
2022-10-14T18:42:49.896Z,4.15
2022-10-14T18:44:13.274Z,5.40
2022-10-14T18:45:36.633Z,5.43
2022-10-14T18:47:00.071Z,5.15
2022-10-14T18:48:23.432Z,4.75
2022-10-14T18:49:46.982Z,4.90
2022-10-14T18:51:10.263Z,4.72
2022-10-14T18:52:33.745Z,4.10
2022-10-14T18:53:59.421Z,4.63
2022-10-14T18:55:23.191Z,4.47
2022-10-14T18:56:48.146Z,4.40
2022-10-14T18:58:10.499Z,4.20